首页
METAR-TAF:

METAR-TAF

机场 :

格拉茨, 奥地利

纬度: 47-00N, 经度: 015-26E, 海拔: 340米

当前天气观测

该预报发布于28分钟前的08:50 UTC
风速2节,风向多变
温度 13°C
湿度 51%
气压 1013 hPa
能见度10公里或以上
少量云层高于5000英尺

METAR: LOWG 290850Z VRB02KT 9999 FEW050 13/03 Q1013 NOSIG

时间: 11:18 (09:18 UTC)

预报

该预报发布于3小时和52分钟前的05:26 UTC
预报有效从29日的 06点(UTC)到 30日的 06点(UTC)
风速4节,风向多变
能见度10公里或以上
1500米以下无云,无积雨云
短暂存在
从 29日的 12点(UTC)到 29日的 17点(UTC)
风速7节,风向
小阵雨
几率 30% :
短暂存在
从 29日的 16点(UTC)到 29日的 19点(UTC)
风速10节,风向多变
阵雨
短暂存在
从 29日的 20点(UTC)到 30日的 06点(UTC)
能见度10公里或以上
小雨

TAF: LOWG 290526Z 2906/3006 VRB04KT CAVOK TX15/2912Z TN04/3005Z TEMPO 2912/2917 35007KT -SHRA PROB30 TEMPO 2916/2919 VRB10KT SHRA TEMPO 2920/3006 9999 -RA

超过4000个机场的气象观测和天气预报(METAR&TAF报告)。

可查询的气象台以黄色和红色小点在地图上表示。

将鼠标移到小点上方,可查看气象台名称。

然后点击查看天气观测和预报。

如需切换地图:点击带黑十字的绿色按钮放大地图;点击带横线的绿色按钮缩小地图;或者点击绿色箭头查看邻近地区的地图。


METAR-TAF: